Idabel, OK

9:18 PM CST on December 10, 2016 (GMT -0600)
Stone Haven | | Change Station

Elev 489 ft 33.87 °N, 94.83 °W | Updated 7 seconds ago

Overcast
Overcast
44.8 °F
Feels Like 45 °F
N
1.0
Wind Variable Wind from SSE
Gusts 4.0 mph

Today
High -- | Low -- °F
--% Chance of Precip.
Yesterday
High -- | Low -- °F
Precip. -- in
Pressure 30.24 in
Visibility 10.0 miles
Clouds Overcast 3800 ft
Windchill 45 °F
Dew Point 32 °F
Humidity 61%
Rainfall 0.00 in
Snow Depth Not available.
7:14 AM 5:10 PM
Waxing Gibbous, 88% visible
METAR K4O4 110255Z AUTO 13005KT 10SM OVC038 06/M02 A3024 RMK AO2
Pressure 30.24 in
Visibility 10.0 miles
Clouds Overcast 3800 ft
Windchill 45 °F
Dew Point 32 °F
Humidity 61%
Rainfall 0.00 in
Snow Depth Not available.
7:14 AM 5:10 PM
Waxing Gibbous, 88% visible
METAR K4O4 110255Z AUTO 13005KT 10SM OVC038 06/M02 A3024 RMK AO2

10-Day Weather Forecast

Almanac

Astronomy

Dec. 10, 2016 Rise Set
Actual Time
Civil Twilight
Nautical Twilight
Astronomical Twilight
Moon
Length of Visible Light
Length of Day
Tomorrow will be .
, % of the Moon is Illuminated

Today's Extremes

State Highs State Lows

Community

WunderPhotos

Upload Photos

1,956,699 photos uploaded!

WunderBlog® & News

Nearby

Air Quality

  Air Quality AQ Index Pollutant
Not available.

Snow Depth

Station Depth Elevation

Earthquake Activity

City Distance Mag. Time & Date
Minimum magnitude displayed is 2.5.

Coastal Water Temperatures

Place Temperature

Stations

Nearby Weather Stations

Station Location Temp. Windchill Dew Point Humidity Wind Precip. Elev Updated Type
                   

Watches & Warnings

There are currently no watches in effect.